sensor_id;sensor_type;location;lat;lon;timestamp;P1;durP1;ratioP1;P2;durP2;ratioP2
14116;SDS011;7137;51.436;6.544;2024-03-23T00:54:18;7.90;;;2.47;;
14116;SDS011;7137;51.436;6.544;2024-03-23T00:57:18;11.03;;;2.73;;
14116;SDS011;7137;51.436;6.544;2024-03-23T01:00:20;7.77;;;2.67;;
14116;SDS011;7137;51.436;6.544;2024-03-23T01:03:20;9.03;;;2.67;;
14116;SDS011;7137;51.436;6.544;2024-03-23T01:06:22;7.77;;;2.17;;
14116;SDS011;7137;51.436;6.544;2024-03-23T01:09:24;11.23;;;2.60;;
14116;SDS011;7137;51.436;6.544;2024-03-23T01:12:26;8.10;;;2.40;;
14116;SDS011;7137;51.436;6.544;2024-03-23T01:15:26;7.17;;;2.30;;
14116;SDS011;7137;51.436;6.544;2024-03-23T01:18:28;11.13;;;2.37;;
14116;SDS011;7137;51.436;6.544;2024-03-23T01:21:29;9.30;;;2.60;;
14116;SDS011;7137;51.436;6.544;2024-03-23T01:24:31;7.30;;;2.30;;
14116;SDS011;7137;51.436;6.544;2024-03-23T01:27:33;9.30;;;2.07;;
14116;SDS011;7137;51.436;6.544;2024-03-23T01:30:34;6.47;;;2.00;;
14116;SDS011;7137;51.436;6.544;2024-03-23T01:33:36;7.80;;;2.20;;
14116;SDS011;7137;51.436;6.544;2024-03-23T01:36:37;8.03;;;2.20;;
14116;SDS011;7137;51.436;6.544;2024-03-23T01:39:40;7.27;;;2.13;;
14116;SDS011;7137;51.436;6.544;2024-03-23T01:42:41;9.17;;;2.80;;
14116;SDS011;7137;51.436;6.544;2024-03-23T01:45:42;9.43;;;2.40;;
14116;SDS011;7137;51.436;6.544;2024-03-23T01:48:43;7.83;;;2.33;;
14116;SDS011;7137;51.436;6.544;2024-03-23T01:51:45;9.27;;;2.47;;
14116;SDS011;7137;51.436;6.544;2024-03-23T01:54:48;10.00;;;2.90;;
14116;SDS011;7137;51.436;6.544;2024-03-23T01:57:49;10.37;;;3.00;;
14116;SDS011;7137;51.436;6.544;2024-03-23T02:00:51;7.23;;;2.57;;
14116;SDS011;7137;51.436;6.544;2024-03-23T02:03:51;6.10;;;1.97;;
14116;SDS011;7137;51.436;6.544;2024-03-23T02:06:53;8.50;;;2.30;;
14116;SDS011;7137;51.436;6.544;2024-03-23T02:09:56;7.90;;;2.50;;
14116;SDS011;7137;51.436;6.544;2024-03-23T02:12:56;7.07;;;2.17;;
14116;SDS011;7137;51.436;6.544;2024-03-23T02:15:58;9.10;;;1.90;;
14116;SDS011;7137;51.436;6.544;2024-03-23T02:18:58;7.63;;;2.30;;
14116;SDS011;7137;51.436;6.544;2024-03-23T02:22:00;7.33;;;2.13;;
14116;SDS011;7137;51.436;6.544;2024-03-23T02:25:02;8.33;;;2.17;;
14116;SDS011;7137;51.436;6.544;2024-03-23T02:28:04;6.37;;;2.00;;
14116;SDS011;7137;51.436;6.544;2024-03-23T02:31:05;7.17;;;2.00;;
14116;SDS011;7137;51.436;6.544;2024-03-23T02:34:07;7.53;;;2.27;;
14116;SDS011;7137;51.436;6.544;2024-03-23T02:37:10;7.47;;;2.00;;
14116;SDS011;7137;51.436;6.544;2024-03-23T02:40:13;8.17;;;2.23;;
14116;SDS011;7137;51.436;6.544;2024-03-23T02:43:13;6.97;;;2.00;;
14116;SDS011;7137;51.436;6.544;2024-03-23T02:46:15;7.73;;;1.97;;
14116;SDS011;7137;51.436;6.544;2024-03-23T02:49:17;5.77;;;1.80;;
14116;SDS011;7137;51.436;6.544;2024-03-23T02:52:18;6.77;;;1.93;;
14116;SDS011;7137;51.436;6.544;2024-03-23T02:55:20;7.60;;;2.00;;
14116;SDS011;7137;51.436;6.544;2024-03-23T02:58:22;6.13;;;2.20;;
14116;SDS011;7137;51.436;6.544;2024-03-23T03:01:22;9.03;;;1.90;;
14116;SDS011;7137;51.436;6.544;2024-03-23T03:04:24;6.67;;;2.10;;
14116;SDS011;7137;51.436;6.544;2024-03-23T03:07:24;7.43;;;1.97;;
14116;SDS011;7137;51.436;6.544;2024-03-23T03:10:27;9.23;;;2.30;;
14116;SDS011;7137;51.436;6.544;2024-03-23T03:13:29;7.67;;;2.00;;
14116;SDS011;7137;51.436;6.544;2024-03-23T03:16:30;8.10;;;2.17;;
14116;SDS011;7137;51.436;6.544;2024-03-23T03:19:31;6.67;;;2.17;;
14116;SDS011;7137;51.436;6.544;2024-03-23T03:22:33;7.00;;;1.97;;
14116;SDS011;7137;51.436;6.544;2024-03-23T03:25:36;8.77;;;2.27;;
14116;SDS011;7137;51.436;6.544;2024-03-23T03:28:36;10.23;;;2.70;;
14116;SDS011;7137;51.436;6.544;2024-03-23T03:31:38;8.37;;;2.50;;
14116;SDS011;7137;51.436;6.544;2024-03-23T03:34:39;7.40;;;2.57;;
14116;SDS011;7137;51.436;6.544;2024-03-23T03:37:40;7.83;;;2.30;;
14116;SDS011;7137;51.436;6.544;2024-03-23T03:40:43;8.73;;;3.00;;
14116;SDS011;7137;51.436;6.544;2024-03-23T03:43:44;8.10;;;2.80;;
14116;SDS011;7137;51.436;6.544;2024-03-23T03:46:45;8.03;;;2.77;;
14116;SDS011;7137;51.436;6.544;2024-03-23T03:49:47;10.47;;;3.13;;
14116;SDS011;7137;51.436;6.544;2024-03-23T03:52:47;7.73;;;2.87;;
14116;SDS011;7137;51.436;6.544;2024-03-23T03:55:50;9.53;;;2.77;;
14116;SDS011;7137;51.436;6.544;2024-03-23T03:58:52;10.07;;;3.40;;
14116;SDS011;7137;51.436;6.544;2024-03-23T04:01:52;8.17;;;3.00;;
14116;SDS011;7137;51.436;6.544;2024-03-23T04:04:54;9.23;;;3.23;;
14116;SDS011;7137;51.436;6.544;2024-03-23T04:07:54;11.20;;;3.40;;
14116;SDS011;7137;51.436;6.544;2024-03-23T04:10:57;12.50;;;3.77;;
14116;SDS011;7137;51.436;6.544;2024-03-23T04:13:58;9.23;;;3.43;;
14116;SDS011;7137;51.436;6.544;2024-03-23T04:16:59;11.00;;;3.80;;
14116;SDS011;7137;51.436;6.544;2024-03-23T04:20:00;12.37;;;3.80;;
14116;SDS011;7137;51.436;6.544;2024-03-23T04:23:03;10.90;;;4.40;;
14116;SDS011;7137;51.436;6.544;2024-03-23T04:26:05;11.70;;;4.23;;
14116;SDS011;7137;51.436;6.544;2024-03-23T04:29:06;10.00;;;3.80;;
14116;SDS011;7137;51.436;6.544;2024-03-23T04:32:07;9.13;;;4.00;;
14116;SDS011;7137;51.436;6.544;2024-03-23T04:35:09;11.80;;;4.10;;
14116;SDS011;7137;51.436;6.544;2024-03-23T04:38:09;12.67;;;4.13;;
14116;SDS011;7137;51.436;6.544;2024-03-23T04:41:12;13.93;;;4.47;;
14116;SDS011;7137;51.436;6.544;2024-03-23T04:44:14;12.97;;;3.97;;
14116;SDS011;7137;51.436;6.544;2024-03-23T04:47:15;11.80;;;4.20;;
14116;SDS011;7137;51.436;6.544;2024-03-23T04:50:17;13.40;;;4.07;;
14116;SDS011;7137;51.436;6.544;2024-03-23T04:53:19;8.87;;;4.00;;
14116;SDS011;7137;51.436;6.544;2024-03-23T04:56:22;13.47;;;4.37;;
14116;SDS011;7137;51.436;6.544;2024-03-23T04:59:23;13.83;;;4.40;;
14116;SDS011;7137;51.436;6.544;2024-03-23T05:02:24;12.20;;;4.40;;
14116;SDS011;7137;51.436;6.544;2024-03-23T05:05:27;13.87;;;4.30;;
14116;SDS011;7137;51.436;6.544;2024-03-23T05:08:28;14.37;;;4.27;;
14116;SDS011;7137;51.436;6.544;2024-03-23T05:11:32;11.47;;;4.40;;
14116;SDS011;7137;51.436;6.544;2024-03-23T05:14:33;14.07;;;4.53;;
14116;SDS011;7137;51.436;6.544;2024-03-23T05:17:35;10.27;;;4.40;;
14116;SDS011;7137;51.436;6.544;2024-03-23T05:20:36;12.03;;;4.70;;
14116;SDS011;7137;51.436;6.544;2024-03-23T05:23:38;11.47;;;4.97;;
14116;SDS011;7137;51.436;6.544;2024-03-23T05:26:41;12.90;;;5.03;;
14116;SDS011;7137;51.436;6.544;2024-03-23T05:29:42;13.93;;;5.17;;
14116;SDS011;7137;51.436;6.544;2024-03-23T05:32:44;11.47;;;4.77;;
14116;SDS011;7137;51.436;6.544;2024-03-23T05:35:45;11.63;;;5.10;;
14116;SDS011;7137;51.436;6.544;2024-03-23T05:38:46;11.27;;;5.30;;
14116;SDS011;7137;51.436;6.544;2024-03-23T05:41:49;13.30;;;5.43;;
14116;SDS011;7137;51.436;6.544;2024-03-23T05:44:50;9.73;;;4.73;;
14116;SDS011;7137;51.436;6.544;2024-03-23T05:47:51;10.77;;;4.93;;
14116;SDS011;7137;51.436;6.544;2024-03-23T05:50:53;10.73;;;5.10;;
14116;SDS011;7137;51.436;6.544;2024-03-23T05:53:54;9.70;;;4.43;;
14116;SDS011;7137;51.436;6.544;2024-03-23T05:56:57;10.73;;;4.77;;
14116;SDS011;7137;51.436;6.544;2024-03-23T05:59:57;11.57;;;5.43;;
14116;SDS011;7137;51.436;6.544;2024-03-23T06:02:59;11.57;;;5.33;;
14116;SDS011;7137;51.436;6.544;2024-03-23T06:06:00;12.57;;;5.70;;
14116;SDS011;7137;51.436;6.544;2024-03-23T06:09:02;14.37;;;6.13;;
14116;SDS011;7137;51.436;6.544;2024-03-23T06:12:04;14.10;;;6.20;;
14116;SDS011;7137;51.436;6.544;2024-03-23T06:15:07;12.53;;;6.47;;
14116;SDS011;7137;51.436;6.544;2024-03-23T06:18:10;15.73;;;7.33;;
14116;SDS011;7137;51.436;6.544;2024-03-23T06:21:15;17.53;;;7.40;;
14116;SDS011;7137;51.436;6.544;2024-03-23T06:24:16;14.37;;;7.57;;
14116;SDS011;7137;51.436;6.544;2024-03-23T06:27:18;14.83;;;7.63;;
14116;SDS011;7137;51.436;6.544;2024-03-23T06:30:20;16.17;;;7.70;;
14116;SDS011;7137;51.436;6.544;2024-03-23T06:33:20;18.77;;;8.37;;
14116;SDS011;7137;51.436;6.544;2024-03-23T06:36:22;16.27;;;8.40;;
14116;SDS011;7137;51.436;6.544;2024-03-23T06:39:22;19.00;;;7.80;;
14116;SDS011;7137;51.436;6.544;2024-03-23T06:42:25;21.17;;;8.37;;
14116;SDS011;7137;51.436;6.544;2024-03-23T06:45:26;18.90;;;8.23;;
14116;SDS011;7137;51.436;6.544;2024-03-23T06:48:27;15.17;;;8.33;;
14116;SDS011;7137;51.436;6.544;2024-03-23T06:51:28;15.63;;;8.17;;
14116;SDS011;7137;51.436;6.544;2024-03-23T06:54:30;16.33;;;7.97;;
14116;SDS011;7137;51.436;6.544;2024-03-23T06:57:33;16.03;;;7.70;;
14116;SDS011;7137;51.436;6.544;2024-03-23T07:00:33;17.20;;;8.00;;
14116;SDS011;7137;51.436;6.544;2024-03-23T07:03:35;14.70;;;7.63;;
14116;SDS011;7137;51.436;6.544;2024-03-23T07:06:41;18.43;;;8.27;;
14116;SDS011;7137;51.436;6.544;2024-03-23T07:09:43;17.40;;;8.07;;
14116;SDS011;7137;51.436;6.544;2024-03-23T07:12:45;16.53;;;7.53;;
14116;SDS011;7137;51.436;6.544;2024-03-23T07:15:51;15.37;;;8.03;;
14116;SDS011;7137;51.436;6.544;2024-03-23T07:18:52;16.57;;;7.27;;
14116;SDS011;7137;51.436;6.544;2024-03-23T07:21:53;14.40;;;7.70;;
14116;SDS011;7137;51.436;6.544;2024-03-23T07:24:54;11.97;;;7.00;;
14116;SDS011;7137;51.436;6.544;2024-03-23T07:27:57;15.33;;;5.80;;
14116;SDS011;7137;51.436;6.544;2024-03-23T07:31:01;13.20;;;5.07;;
14116;SDS011;7137;51.436;6.544;2024-03-23T07:34:04;10.80;;;5.00;;
14116;SDS011;7137;51.436;6.544;2024-03-23T07:37:05;9.63;;;4.37;;
14116;SDS011;7137;51.436;6.544;2024-03-23T07:40:07;10.87;;;4.23;;
14116;SDS011;7137;51.436;6.544;2024-03-23T07:43:11;11.27;;;4.40;;
14116;SDS011;7137;51.436;6.544;2024-03-23T07:46:12;12.57;;;4.20;;
14116;SDS011;7137;51.436;6.544;2024-03-23T07:49:14;9.87;;;4.20;;
14116;SDS011;7137;51.436;6.544;2024-03-23T07:52:14;12.03;;;4.43;;
14116;SDS011;7137;51.436;6.544;2024-03-23T07:55:16;10.97;;;4.23;;
14116;SDS011;7137;51.436;6.544;2024-03-23T07:58:18;12.27;;;3.97;;
14116;SDS011;7137;51.436;6.544;2024-03-23T08:01:20;12.27;;;4.70;;
14116;SDS011;7137;51.436;6.544;2024-03-23T08:04:20;10.63;;;3.90;;
14116;SDS011;7137;51.436;6.544;2024-03-23T08:07:22;11.70;;;3.97;;
14116;SDS011;7137;51.436;6.544;2024-03-23T08:10:22;11.00;;;4.10;;
14116;SDS011;7137;51.436;6.544;2024-03-23T08:13:26;14.80;;;4.90;;
14116;SDS011;7137;51.436;6.544;2024-03-23T08:16:27;11.13;;;3.73;;
14116;SDS011;7137;51.436;6.544;2024-03-23T08:19:28;13.60;;;4.77;;
14116;SDS011;7137;51.436;6.544;2024-03-23T08:22:29;14.80;;;5.23;;
14116;SDS011;7137;51.436;6.544;2024-03-23T08:25:31;12.00;;;3.73;;
14116;SDS011;7137;51.436;6.544;2024-03-23T08:28:33;14.47;;;4.30;;
14116;SDS011;7137;51.436;6.544;2024-03-23T08:31:34;9.33;;;3.37;;
14116;SDS011;7137;51.436;6.544;2024-03-23T08:34:35;10.83;;;4.07;;
14116;SDS011;7137;51.436;6.544;2024-03-23T08:37:36;6.67;;;2.57;;
14116;SDS011;7137;51.436;6.544;2024-03-23T08:40:37;8.43;;;2.57;;
14116;SDS011;7137;51.436;6.544;2024-03-23T08:43:40;6.77;;;2.50;;
14116;SDS011;7137;51.436;6.544;2024-03-23T08:46:42;7.87;;;2.60;;
14116;SDS011;7137;51.436;6.544;2024-03-23T08:49:44;8.13;;;3.17;;
14116;SDS011;7137;51.436;6.544;2024-03-23T08:52:48;8.33;;;3.17;;
14116;SDS011;7137;51.436;6.544;2024-03-23T08:55:52;9.77;;;3.40;;
14116;SDS011;7137;51.436;6.544;2024-03-23T08:58:55;8.90;;;3.63;;
14116;SDS011;7137;51.436;6.544;2024-03-23T09:01:56;8.40;;;3.63;;
14116;SDS011;7137;51.436;6.544;2024-03-23T09:04:57;10.43;;;3.23;;
14116;SDS011;7137;51.436;6.544;2024-03-23T09:08:04;11.23;;;3.70;;
14116;SDS011;7137;51.436;6.544;2024-03-23T09:11:07;11.93;;;3.83;;
14116;SDS011;7137;51.436;6.544;2024-03-23T09:14:10;10.10;;;3.30;;
14116;SDS011;7137;51.436;6.544;2024-03-23T09:17:11;10.03;;;3.57;;
14116;SDS011;7137;51.436;6.544;2024-03-23T09:20:12;8.13;;;2.97;;
14116;SDS011;7137;51.436;6.544;2024-03-23T09:23:13;6.63;;;2.60;;
14116;SDS011;7137;51.436;6.544;2024-03-23T09:26:15;9.33;;;3.13;;
14116;SDS011;7137;51.436;6.544;2024-03-23T09:29:17;12.63;;;2.87;;
14116;SDS011;7137;51.436;6.544;2024-03-23T09:32:18;7.10;;;2.50;;
14116;SDS011;7137;51.436;6.544;2024-03-23T09:35:19;8.37;;;2.40;;
14116;SDS011;7137;51.436;6.544;2024-03-23T09:38:20;8.53;;;2.30;;
14116;SDS011;7137;51.436;6.544;2024-03-23T09:41:22;6.83;;;2.20;;
14116;SDS011;7137;51.436;6.544;2024-03-23T09:44:24;8.73;;;2.20;;
14116;SDS011;7137;51.436;6.544;2024-03-23T09:47:29;6.90;;;2.07;;
14116;SDS011;7137;51.436;6.544;2024-03-23T09:50:30;8.70;;;2.10;;
14116;SDS011;7137;51.436;6.544;2024-03-23T09:53:31;9.43;;;2.33;;
14116;SDS011;7137;51.436;6.544;2024-03-23T09:56:32;7.73;;;2.10;;
14116;SDS011;7137;51.436;6.544;2024-03-23T09:59:35;7.60;;;2.10;;
14116;SDS011;7137;51.436;6.544;2024-03-23T10:02:36;8.17;;;1.80;;
14116;SDS011;7137;51.436;6.544;2024-03-23T10:05:38;9.30;;;2.03;;
14116;SDS011;7137;51.436;6.544;2024-03-23T10:08:38;8.50;;;1.90;;
14116;SDS011;7137;51.436;6.544;2024-03-23T10:11:40;7.93;;;1.90;;
14116;SDS011;7137;51.436;6.544;2024-03-23T10:14:42;8.23;;;1.90;;
14116;SDS011;7137;51.436;6.544;2024-03-23T10:17:44;7.63;;;1.87;;
14116;SDS011;7137;51.436;6.544;2024-03-23T10:20:47;5.27;;;1.47;;
14116;SDS011;7137;51.436;6.544;2024-03-23T10:23:52;5.90;;;1.40;;
14116;SDS011;7137;51.436;6.544;2024-03-23T10:26:55;6.20;;;1.60;;
14116;SDS011;7137;51.436;6.544;2024-03-23T10:29:59;3.93;;;1.33;;
14116;SDS011;7137;51.436;6.544;2024-03-23T10:33:09;3.47;;;0.90;;
14116;SDS011;7137;51.436;6.544;2024-03-23T10:36:12;2.67;;;0.80;;
14116;SDS011;7137;51.436;6.544;2024-03-23T10:39:12;2.80;;;0.67;;
14116;SDS011;7137;51.436;6.544;2024-03-23T10:42:17;4.13;;;1.00;;
14116;SDS011;7137;51.436;6.544;2024-03-23T10:45:20;2.93;;;0.93;;
14116;SDS011;7137;51.436;6.544;2024-03-23T10:48:22;2.80;;;1.03;;
14116;SDS011;7137;51.436;6.544;2024-03-23T10:51:23;3.37;;;1.10;;
14116;SDS011;7137;51.436;6.544;2024-03-23T10:54:25;5.73;;;2.00;;
14116;SDS011;7137;51.436;6.544;2024-03-23T10:57:26;5.87;;;1.90;;
14116;SDS011;7137;51.436;6.544;2024-03-23T11:00:37;7.40;;;1.97;;
14116;SDS011;7137;51.436;6.544;2024-03-23T11:03:39;7.00;;;1.77;;
14116;SDS011;7137;51.436;6.544;2024-03-23T11:06:45;8.90;;;2.10;;
14116;SDS011;7137;51.436;6.544;2024-03-23T11:09:47;5.97;;;1.90;;
14116;SDS011;7137;51.436;6.544;2024-03-23T11:12:49;7.77;;;2.30;;
14116;SDS011;7137;51.436;6.544;2024-03-23T11:15:52;8.67;;;2.80;;
14116;SDS011;7137;51.436;6.544;2024-03-23T11:18:53;8.17;;;2.80;;
14116;SDS011;7137;51.436;6.544;2024-03-23T11:21:55;9.20;;;2.93;;
14116;SDS011;7137;51.436;6.544;2024-03-23T11:24:56;7.30;;;2.40;;
14116;SDS011;7137;51.436;6.544;2024-03-23T11:27:57;8.13;;;2.30;;
14116;SDS011;7137;51.436;6.544;2024-03-23T11:31:11;4.47;;;1.10;;
14116;SDS011;7137;51.436;6.544;2024-03-23T11:34:12;5.07;;;1.50;;
14116;SDS011;7137;51.436;6.544;2024-03-23T11:37:14;6.40;;;1.87;;
14116;SDS011;7137;51.436;6.544;2024-03-23T11:40:16;5.50;;;2.00;;
14116;SDS011;7137;51.436;6.544;2024-03-23T11:43:19;5.17;;;1.53;;
14116;SDS011;7137;51.436;6.544;2024-03-23T11:46:23;6.30;;;1.50;;
14116;SDS011;7137;51.436;6.544;2024-03-23T11:49:24;5.40;;;1.40;;
14116;SDS011;7137;51.436;6.544;2024-03-23T11:52:27;5.37;;;1.43;;
14116;SDS011;7137;51.436;6.544;2024-03-23T11:55:28;7.57;;;2.00;;
14116;SDS011;7137;51.436;6.544;2024-03-23T11:58:29;5.10;;;1.60;;
14116;SDS011;7137;51.436;6.544;2024-03-23T12:01:33;5.10;;;1.60;;
14116;SDS011;7137;51.436;6.544;2024-03-23T12:04:34;6.80;;;1.60;;
14116;SDS011;7137;51.436;6.544;2024-03-23T12:07:36;5.47;;;1.50;;
14116;SDS011;7137;51.436;6.544;2024-03-23T12:10:37;6.30;;;1.60;;
14116;SDS011;7137;51.436;6.544;2024-03-23T12:13:38;6.83;;;1.77;;
14116;SDS011;7137;51.436;6.544;2024-03-23T12:16:43;8.20;;;1.90;;
14116;SDS011;7137;51.436;6.544;2024-03-23T12:19:44;5.83;;;1.60;;
14116;SDS011;7137;51.436;6.544;2024-03-23T12:22:45;5.87;;;1.90;;
14116;SDS011;7137;51.436;6.544;2024-03-23T12:25:48;6.23;;;1.80;;
14116;SDS011;7137;51.436;6.544;2024-03-23T12:28:49;5.87;;;1.70;;
14116;SDS011;7137;51.436;6.544;2024-03-23T12:31:52;3.50;;;1.03;;
14116;SDS011;7137;51.436;6.544;2024-03-23T12:34:52;3.53;;;1.20;;
14116;SDS011;7137;51.436;6.544;2024-03-23T12:37:54;3.50;;;1.97;;
14116;SDS011;7137;51.436;6.544;2024-03-23T12:40:55;2.87;;;0.80;;
14116;SDS011;7137;51.436;6.544;2024-03-23T12:43:56;2.70;;;0.40;;
14116;SDS011;7137;51.436;6.544;2024-03-23T12:46:58;2.03;;;0.83;;
14116;SDS011;7137;51.436;6.544;2024-03-23T12:50:00;4.03;;;1.23;;
14116;SDS011;7137;51.436;6.544;2024-03-23T12:53:01;5.67;;;1.30;;
14116;SDS011;7137;51.436;6.544;2024-03-23T12:56:02;4.07;;;1.43;;
14116;SDS011;7137;51.436;6.544;2024-03-23T12:59:03;5.27;;;1.60;;
14116;SDS011;7137;51.436;6.544;2024-03-23T13:02:06;8.63;;;2.23;;
14116;SDS011;7137;51.436;6.544;2024-03-23T13:05:08;4.87;;;1.70;;
14116;SDS011;7137;51.436;6.544;2024-03-23T13:08:10;5.37;;;1.70;;
14116;SDS011;7137;51.436;6.544;2024-03-23T13:11:10;4.50;;;1.30;;
14116;SDS011;7137;51.436;6.544;2024-03-23T13:14:13;4.73;;;1.23;;
14116;SDS011;7137;51.436;6.544;2024-03-23T13:17:18;6.07;;;1.23;;
14116;SDS011;7137;51.436;6.544;2024-03-23T13:20:19;3.90;;;1.10;;
14116;SDS011;7137;51.436;6.544;2024-03-23T13:23:21;3.90;;;0.73;;
14116;SDS011;7137;51.436;6.544;2024-03-23T13:26:22;2.27;;;0.50;;
14116;SDS011;7137;51.436;6.544;2024-03-23T13:29:24;3.00;;;1.07;;
14116;SDS011;7137;51.436;6.544;2024-03-23T13:32:26;1.93;;;0.50;;
14116;SDS011;7137;51.436;6.544;2024-03-23T13:35:27;3.40;;;0.80;;
14116;SDS011;7137;51.436;6.544;2024-03-23T13:38:28;2.60;;;0.70;;
14116;SDS011;7137;51.436;6.544;2024-03-23T13:41:29;2.93;;;0.77;;
14116;SDS011;7137;51.436;6.544;2024-03-23T13:44:30;3.77;;;0.87;;
14116;SDS011;7137;51.436;6.544;2024-03-23T13:47:33;3.90;;;1.07;;
14116;SDS011;7137;51.436;6.544;2024-03-23T13:50:34;4.17;;;1.07;;
14116;SDS011;7137;51.436;6.544;2024-03-23T13:53:35;3.80;;;1.10;;
14116;SDS011;7137;51.436;6.544;2024-03-23T13:56:36;3.03;;;1.07;;
14116;SDS011;7137;51.436;6.544;2024-03-23T13:59:37;5.67;;;1.13;;
14116;SDS011;7137;51.436;6.544;2024-03-23T14:02:40;4.43;;;1.00;;
14116;SDS011;7137;51.436;6.544;2024-03-23T14:05:41;4.80;;;1.10;;
14116;SDS011;7137;51.436;6.544;2024-03-23T14:08:43;3.70;;;1.10;;
14116;SDS011;7137;51.436;6.544;2024-03-23T14:11:44;5.67;;;1.50;;
14116;SDS011;7137;51.436;6.544;2024-03-23T14:14:45;4.57;;;1.10;;
14116;SDS011;7137;51.436;6.544;2024-03-23T14:17:48;5.00;;;1.17;;
14116;SDS011;7137;51.436;6.544;2024-03-23T14:20:51;3.53;;;1.10;;
14116;SDS011;7137;51.436;6.544;2024-03-23T14:23:58;4.57;;;1.40;;
14116;SDS011;7137;51.436;6.544;2024-03-23T14:27:00;5.80;;;1.00;;
14116;SDS011;7137;51.436;6.544;2024-03-23T14:30:05;3.93;;;1.10;;
14116;SDS011;7137;51.436;6.544;2024-03-23T14:33:09;3.80;;;1.10;;
14116;SDS011;7137;51.436;6.544;2024-03-23T14:36:11;5.70;;;1.30;;
14116;SDS011;7137;51.436;6.544;2024-03-23T14:39:12;5.07;;;1.23;;
14116;SDS011;7137;51.436;6.544;2024-03-23T14:42:15;4.40;;;1.20;;
14116;SDS011;7137;51.436;6.544;2024-03-23T14:45:15;5.00;;;1.00;;
14116;SDS011;7137;51.436;6.544;2024-03-23T14:48:18;4.87;;;1.50;;
14116;SDS011;7137;51.436;6.544;2024-03-23T14:51:19;5.03;;;1.30;;
14116;SDS011;7137;51.436;6.544;2024-03-23T14:54:22;4.80;;;1.23;;
14116;SDS011;7137;51.436;6.544;2024-03-23T14:57:22;4.97;;;1.50;;
14116;SDS011;7137;51.436;6.544;2024-03-23T15:00:24;3.70;;;1.10;;
14116;SDS011;7137;51.436;6.544;2024-03-23T15:03:28;6.67;;;1.30;;
14116;SDS011;7137;51.436;6.544;2024-03-23T15:06:28;4.50;;;1.20;;
14116;SDS011;7137;51.436;6.544;2024-03-23T15:09:30;4.67;;;1.40;;
14116;SDS011;7137;51.436;6.544;2024-03-23T15:12:32;3.77;;;1.27;;
14116;SDS011;7137;51.436;6.544;2024-03-23T15:15:37;5.23;;;1.17;;
14116;SDS011;7137;51.436;6.544;2024-03-23T15:18:40;4.30;;;1.07;;
14116;SDS011;7137;51.436;6.544;2024-03-23T15:21:41;2.80;;;1.20;;
14116;SDS011;7137;51.436;6.544;2024-03-23T15:24:42;4.03;;;1.13;;
14116;SDS011;7137;51.436;6.544;2024-03-23T15:27:44;4.37;;;1.20;;
14116;SDS011;7137;51.436;6.544;2024-03-23T15:30:45;2.63;;;1.10;;
14116;SDS011;7137;51.436;6.544;2024-03-23T15:33:48;5.03;;;1.33;;
14116;SDS011;7137;51.436;6.544;2024-03-23T15:36:49;4.67;;;1.40;;
14116;SDS011;7137;51.436;6.544;2024-03-23T15:39:51;5.00;;;1.10;;
14116;SDS011;7137;51.436;6.544;2024-03-23T15:42:52;4.23;;;1.17;;
14116;SDS011;7137;51.436;6.544;2024-03-23T15:45:54;5.97;;;1.60;;
14116;SDS011;7137;51.436;6.544;2024-03-23T15:48:56;5.40;;;1.30;;
14116;SDS011;7137;51.436;6.544;2024-03-23T15:51:58;6.57;;;1.40;;
14116;SDS011;7137;51.436;6.544;2024-03-23T15:55:00;6.03;;;1.37;;
14116;SDS011;7137;51.436;6.544;2024-03-23T15:58:01;7.50;;;1.47;;
14116;SDS011;7137;51.436;6.544;2024-03-23T16:01:03;4.07;;;1.10;;
14116;SDS011;7137;51.436;6.544;2024-03-23T16:04:06;5.67;;;1.30;;
14116;SDS011;7137;51.436;6.544;2024-03-23T16:07:08;4.00;;;1.20;;
14116;SDS011;7137;51.436;6.544;2024-03-23T16:10:08;3.87;;;1.20;;
14116;SDS011;7137;51.436;6.544;2024-03-23T16:13:11;3.00;;;0.80;;
14116;SDS011;7137;51.436;6.544;2024-03-23T16:16:12;4.17;;;0.90;;
14116;SDS011;7137;51.436;6.544;2024-03-23T16:19:17;2.47;;;0.73;;
14116;SDS011;7137;51.436;6.544;2024-03-23T16:22:17;3.63;;;1.13;;
14116;SDS011;7137;51.436;6.544;2024-03-23T16:25:19;3.10;;;0.90;;
14116;SDS011;7137;51.436;6.544;2024-03-23T16:28:19;3.43;;;1.00;;
14116;SDS011;7137;51.436;6.544;2024-03-23T16:31:22;3.90;;;1.07;;
14116;SDS011;7137;51.436;6.544;2024-03-23T16:34:25;2.90;;;0.80;;
14116;SDS011;7137;51.436;6.544;2024-03-23T16:37:26;5.27;;;1.00;;
14116;SDS011;7137;51.436;6.544;2024-03-23T16:40:27;4.40;;;1.20;;
14116;SDS011;7137;51.436;6.544;2024-03-23T16:43:29;6.30;;;1.40;;
14116;SDS011;7137;51.436;6.544;2024-03-23T16:46:30;4.87;;;1.40;;
14116;SDS011;7137;51.436;6.544;2024-03-23T16:49:33;7.33;;;1.10;;
14116;SDS011;7137;51.436;6.544;2024-03-23T16:52:33;5.43;;;1.17;;
14116;SDS011;7137;51.436;6.544;2024-03-23T16:55:37;5.27;;;1.03;;
14116;SDS011;7137;51.436;6.544;2024-03-23T16:58:38;4.90;;;1.40;;
14116;SDS011;7137;51.436;6.544;2024-03-23T17:01:41;4.03;;;1.20;;
14116;SDS011;7137;51.436;6.544;2024-03-23T17:04:42;4.50;;;1.27;;
14116;SDS011;7137;51.436;6.544;2024-03-23T17:07:44;5.33;;;1.40;;
14116;SDS011;7137;51.436;6.544;2024-03-23T17:10:45;3.23;;;0.90;;
14116;SDS011;7137;51.436;6.544;2024-03-23T17:13:59;5.40;;;0.90;;
14116;SDS011;7137;51.436;6.544;2024-03-23T17:16:59;3.57;;;1.00;;
14116;SDS011;7137;51.436;6.544;2024-03-23T17:20:02;2.10;;;0.73;;
14116;SDS011;7137;51.436;6.544;2024-03-23T17:23:04;1.97;;;0.67;;
14116;SDS011;7137;51.436;6.544;2024-03-23T17:26:06;3.83;;;0.97;;
14116;SDS011;7137;51.436;6.544;2024-03-23T17:29:06;1.67;;;0.73;;
14116;SDS011;7137;51.436;6.544;2024-03-23T17:32:08;2.57;;;0.90;;
14116;SDS011;7137;51.436;6.544;2024-03-23T17:35:10;2.73;;;0.90;;
14116;SDS011;7137;51.436;6.544;2024-03-23T17:38:12;2.20;;;1.10;;
14116;SDS011;7137;51.436;6.544;2024-03-23T17:41:12;2.63;;;0.87;;
14116;SDS011;7137;51.436;6.544;2024-03-23T17:44:14;2.00;;;0.83;;
14116;SDS011;7137;51.436;6.544;2024-03-23T17:47:15;2.73;;;0.90;;
14116;SDS011;7137;51.436;6.544;2024-03-23T17:50:19;1.87;;;0.70;;
14116;SDS011;7137;51.436;6.544;2024-03-23T17:53:20;2.63;;;0.90;;
14116;SDS011;7137;51.436;6.544;2024-03-23T17:56:22;3.00;;;0.90;;
14116;SDS011;7137;51.436;6.544;2024-03-23T17:59:23;3.00;;;0.90;;
14116;SDS011;7137;51.436;6.544;2024-03-23T18:02:24;2.83;;;1.10;;
14116;SDS011;7137;51.436;6.544;2024-03-23T18:05:27;2.90;;;0.83;;
14116;SDS011;7137;51.436;6.544;2024-03-23T18:08:28;1.90;;;0.73;;
14116;SDS011;7137;51.436;6.544;2024-03-23T18:11:29;1.80;;;0.80;;
14116;SDS011;7137;51.436;6.544;2024-03-23T18:14:30;3.43;;;1.20;;
14116;SDS011;7137;51.436;6.544;2024-03-23T18:17:32;3.70;;;1.20;;
14116;SDS011;7137;51.436;6.544;2024-03-23T18:20:35;4.60;;;1.50;;
14116;SDS011;7137;51.436;6.544;2024-03-23T18:23:36;4.03;;;1.90;;
14116;SDS011;7137;51.436;6.544;2024-03-23T18:26:37;5.67;;;2.47;;
14116;SDS011;7137;51.436;6.544;2024-03-23T18:29:39;6.13;;;2.60;;
14116;SDS011;7137;51.436;6.544;2024-03-23T18:32:39;4.47;;;1.70;;
14116;SDS011;7137;51.436;6.544;2024-03-23T18:35:42;3.10;;;1.17;;
14116;SDS011;7137;51.436;6.544;2024-03-23T18:38:43;3.10;;;1.20;;
14116;SDS011;7137;51.436;6.544;2024-03-23T18:41:44;3.33;;;1.10;;
14116;SDS011;7137;51.436;6.544;2024-03-23T18:44:45;3.47;;;1.10;;
14116;SDS011;7137;51.436;6.544;2024-03-23T18:47:46;3.67;;;0.90;;
14116;SDS011;7137;51.436;6.544;2024-03-23T18:50:48;2.50;;;1.10;;
14116;SDS011;7137;51.436;6.544;2024-03-23T18:53:50;2.17;;;1.20;;
14116;SDS011;7137;51.436;6.544;2024-03-23T18:56:51;3.97;;;1.27;;
14116;SDS011;7137;51.436;6.544;2024-03-23T18:59:53;2.53;;;0.97;;
14116;SDS011;7137;51.436;6.544;2024-03-23T19:02:53;2.77;;;1.10;;
14116;SDS011;7137;51.436;6.544;2024-03-23T19:05:57;4.07;;;1.00;;
14116;SDS011;7137;51.436;6.544;2024-03-23T19:08:58;2.57;;;1.20;;
14116;SDS011;7137;51.436;6.544;2024-03-23T19:12:00;2.67;;;1.33;;
14116;SDS011;7137;51.436;6.544;2024-03-23T19:15:00;3.17;;;1.10;;
14116;SDS011;7137;51.436;6.544;2024-03-23T19:18:02;3.23;;;1.30;;
14116;SDS011;7137;51.436;6.544;2024-03-23T19:21:05;2.50;;;1.40;;